Time;durP1;ratioP1;P1;durP2;ratioP2;P2;SDS_P1;SDS_P2;PMS_P1;PMS_P2;Temp;Humidity;BMP_temperature;BMP_pressure;BME280_temperature;BME280_humidity;BME280_pressure;Samples;Min_cycle;Max_cycle;Signal;HPM_P1;HPM_P2
2023/04/07 00:01:20;;;;;;;24.02;18.55;;;10.40;91.30;;;;;;5093120;28;20534;-67
2023/04/07 00:03:46;;;;;;;28.45;21.55;;;10.40;91.40;;;;;;5086690;28;20026;-66
2023/04/07 00:06:11;;;;;;;23.83;17.50;;;10.40;91.50;;;;;;5072526;28;20024;-67
2023/04/07 00:08:37;;;;;;;22.90;17.52;;;10.40;91.60;;;;;;5084882;28;20056;-67
2023/04/07 00:11:02;;;;;;;23.60;17.42;;;10.40;91.60;;;;;;5072503;28;20013;-67
2023/04/07 00:13:28;;;;;;;20.20;15.45;;;10.40;91.70;;;;;;5071714;28;20113;-67
2023/04/07 00:15:54;;;;;;;24.27;18.30;;;10.40;91.70;;;;;;5091550;28;20138;-67
2023/04/07 00:18:19;;;;;;;25.13;18.83;;;10.40;91.70;;;;;;5086950;28;20120;-67
2023/04/07 00:20:45;;;;;;;25.00;18.17;;;10.30;91.70;;;;;;5091468;28;20036;-67
2023/04/07 00:23:10;;;;;;;21.55;15.68;;;10.30;91.80;;;;;;5087633;28;20040;-67
2023/04/07 00:25:36;;;;;;;26.52;18.92;;;10.30;91.90;;;;;;5072297;28;20033;-66
2023/04/07 00:28:02;;;;;;;22.10;16.35;;;10.30;92.00;;;;;;5074085;28;20496;-68
2023/04/07 00:30:27;;;;;;;25.38;18.05;;;10.20;92.10;;;;;;5086568;28;20382;-66
2023/04/07 00:32:53;;;;;;;31.98;21.10;;;10.20;92.10;;;;;;5091882;28;20030;-67
2023/04/07 00:35:19;;;;;;;22.83;15.95;;;10.30;92.30;;;;;;5087410;28;20028;-67
2023/04/07 00:37:44;;;;;;;21.35;15.57;;;10.20;92.40;;;;;;5091211;28;20030;-66
2023/04/07 00:40:11;;;;;;;23.23;14.95;;;10.20;92.40;;;;;;5073454;28;20024;-67
2023/04/07 00:42:37;;;;;;;18.35;13.35;;;10.30;92.40;;;;;;5071138;28;20029;-67
2023/04/07 00:45:03;;;;;;;22.52;15.02;;;10.20;92.40;;;;;;5084636;28;20035;-68
2023/04/07 00:47:29;;;;;;;18.90;13.30;;;10.30;92.40;;;;;;5091974;28;20028;-68
2023/04/07 00:49:54;;;;;;;20.40;13.75;;;10.20;92.40;;;;;;5082970;28;20070;-68
2023/04/07 00:52:27;;;;;;;20.58;13.43;;;10.20;92.40;;;;;;5072166;28;20451;-68
2023/04/07 00:54:56;;;;;;;20.83;14.13;;;10.20;92.40;;;;;;5083057;28;20111;-67
2023/04/07 00:57:22;;;;;;;19.83;13.63;;;10.20;92.50;;;;;;5091292;28;20020;-68
2023/04/07 00:59:55;;;;;;;19.92;14.02;;;10.20;92.50;;;;;;5085487;28;20085;-67
2023/04/07 01:02:31;;;;;;;22.65;14.57;;;10.20;92.50;;;;;;5092230;28;20020;-67
2023/04/07 01:05:22;;;;;;;20.90;14.02;;;10.30;92.50;;;;;;5086354;28;20020;-68
2023/04/07 01:08:00;;;;;;;23.48;15.77;;;10.20;92.50;;;;;;5080574;28;20032;-66
2023/04/07 01:10:44;;;;;;;23.75;14.57;;;10.20;92.50;;;;;;5078072;28;20446;-69
2023/04/07 01:13:33;;;;;;;16.88;11.02;;;10.10;92.50;;;;;;5085811;28;20023;-67
2023/04/07 01:16:02;;;;;;;24.65;15.70;;;10.20;92.60;;;;;;5083482;28;20059;-67
2023/04/07 01:18:32;;;;;;;31.73;17.00;;;10.10;92.50;;;;;;5091421;28;20027;-65
2023/04/07 01:21:03;;;;;;;20.98;14.30;;;10.10;92.60;;;;;;5074018;28;20029;-65
2023/04/07 01:24:07;;;;;;;20.38;13.50;;;10.10;92.70;;;;;;5071170;28;20024;-66
2023/04/07 01:26:33;;;;;;;17.42;11.93;;;10.10;93.00;;;;;;5085996;28;20052;-67
2023/04/07 01:29:33;;;;;;;18.83;13.10;;;10.10;92.60;;;;;;5089855;28;20608;-66
2023/04/07 01:32:01;;;;;;;20.02;13.00;;;10.10;92.60;;;;;;5071199;28;20032;-67
2023/04/07 01:34:30;;;;;;;20.00;12.85;;;10.10;92.60;;;;;;5072824;28;20017;-66
2023/04/07 01:36:57;;;;;;;19.42;11.38;;;10.10;92.70;;;;;;5079699;28;20020;-67
2023/04/07 01:39:26;;;;;;;21.35;11.82;;;10.10;92.70;;;;;;5086966;28;20070;-66
2023/04/07 01:41:52;;;;;;;21.48;13.82;;;10.10;92.60;;;;;;5070665;28;20731;-66
2023/04/07 01:44:19;;;;;;;24.90;14.90;;;10.00;92.60;;;;;;5083807;28;20482;-66
2023/04/07 01:46:45;;;;;;;24.52;13.43;;;10.00;92.60;;;;;;5081389;28;20022;-66
2023/04/07 01:49:12;;;;;;;22.05;13.15;;;10.00;92.70;;;;;;5090804;28;20095;-66
2023/04/07 01:51:39;;;;;;;16.88;10.85;;;10.00;92.80;;;;;;5085174;28;20023;-66
2023/04/07 01:54:06;;;;;;;19.70;12.05;;;10.00;92.80;;;;;;5090213;28;20028;-66
2023/04/07 01:56:32;;;;;;;18.40;11.73;;;10.00;92.70;;;;;;5085406;28;20456;-66
2023/04/07 01:58:58;;;;;;;19.60;12.55;;;10.00;92.70;;;;;;5090659;28;20448;-66
2023/04/07 02:01:23;;;;;;;18.98;12.25;;;10.10;92.70;;;;;;5084482;28;20032;-65
2023/04/07 02:04:06;;;;;;;17.35;11.32;;;10.00;92.60;;;;;;5087173;28;20028;-66
2023/04/07 02:06:37;;;;;;;20.65;11.95;;;10.00;92.70;;;;;;5082651;28;20051;-67
2023/04/07 02:09:06;;;;;;;17.25;11.02;;;10.00;92.60;;;;;;5088896;28;20032;-67
2023/04/07 02:11:34;;;;;;;18.65;11.10;;;10.00;92.60;;;;;;5085900;28;20039;-66
2023/04/07 02:14:02;;;;;;;17.20;10.57;;;10.00;92.60;;;;;;5074302;28;20024;-67
2023/04/07 02:16:30;;;;;;;15.63;10.75;;;10.00;92.60;;;;;;5078085;28;20399;-67
2023/04/07 02:18:57;;;;;;;17.42;11.93;;;10.00;92.60;;;;;;5070203;28;20066;-66
2023/04/07 02:21:24;;;;;;;19.85;12.32;;;10.00;92.50;;;;;;5079114;28;20443;-67
2023/04/07 02:23:50;;;;;;;17.98;11.45;;;10.00;92.40;;;;;;5080479;28;20074;-66
2023/04/07 02:26:15;;;;;;;18.42;11.32;;;10.00;92.50;;;;;;5077831;28;20016;-67
2023/04/07 02:28:41;;;;;;;18.63;11.68;;;10.00;92.50;;;;;;5083618;28;20032;-66
2023/04/07 02:31:07;;;;;;;19.17;12.65;;;10.00;92.50;;;;;;5086089;28;20493;-66
2023/04/07 02:33:33;;;;;;;19.02;11.27;;;10.00;92.50;;;;;;5090383;28;20482;-66
2023/04/07 02:35:58;;;;;;;17.10;9.93;;;9.90;92.50;;;;;;5079376;28;20548;-66
2023/04/07 02:38:24;;;;;;;17.42;11.40;;;9.90;92.50;;;;;;5082820;28;20097;-65
2023/04/07 02:40:50;;;;;;;15.20;9.85;;;9.90;92.40;;;;;;5074464;28;20024;-65
2023/04/07 02:43:16;;;;;;;19.80;11.38;;;9.90;92.40;;;;;;5072151;28;20036;-67
2023/04/07 02:45:42;;;;;;;17.00;10.98;;;9.90;92.40;;;;;;5074697;28;20085;-66
2023/04/07 02:48:07;;;;;;;16.80;10.35;;;9.90;92.40;;;;;;5079917;28;20036;-67
2023/04/07 02:50:33;;;;;;;16.40;10.63;;;9.90;92.40;;;;;;5081328;28;20101;-66
2023/04/07 02:52:58;;;;;;;15.15;10.18;;;9.90;92.40;;;;;;5071157;28;20086;-65
2023/04/07 02:55:24;;;;;;;22.40;13.38;;;9.90;92.40;;;;;;5070800;28;20025;-67
2023/04/07 02:57:49;;;;;;;19.13;11.55;;;9.90;92.30;;;;;;5088288;28;20056;-67
2023/04/07 03:00:15;;;;;;;18.50;11.27;;;9.90;92.40;;;;;;5087914;28;20035;-67
2023/04/07 03:02:41;;;;;;;16.02;10.75;;;9.90;92.40;;;;;;5069899;28;20029;-66
2023/04/07 03:05:07;;;;;;;16.27;10.50;;;9.90;92.40;;;;;;5072395;28;20027;-67
2023/04/07 03:07:32;;;;;;;13.55;9.30;;;9.90;92.40;;;;;;5076472;28;20029;-67
2023/04/07 03:09:58;;;;;;;15.60;10.45;;;9.90;92.40;;;;;;5072177;28;20099;-68
2023/04/07 03:12:23;;;;;;;17.08;10.85;;;9.90;92.30;;;;;;5077018;28;20052;-67
2023/04/07 03:14:49;;;;;;;15.63;10.13;;;9.90;92.20;;;;;;5093591;28;20052;-66
2023/04/07 03:17:14;;;;;;;17.70;11.50;;;9.90;92.20;;;;;;5082286;28;20060;-66
2023/04/07 03:19:40;;;;;;;17.77;10.57;;;9.90;92.20;;;;;;5093698;28;20414;-67
2023/04/07 03:22:06;;;;;;;14.77;9.52;;;9.90;92.30;;;;;;5083654;28;20052;-65
2023/04/07 03:24:31;;;;;;;14.80;9.50;;;9.90;92.30;;;;;;5085180;28;20056;-67
2023/04/07 03:26:57;;;;;;;14.65;10.07;;;9.90;92.20;;;;;;5080744;28;20529;-67
2023/04/07 03:29:22;;;;;;;16.45;10.52;;;9.90;92.20;;;;;;5076360;28;20025;-67
2023/04/07 03:31:48;;;;;;;14.82;9.90;;;9.90;92.20;;;;;;5079308;28;20024;-66
2023/04/07 03:34:14;;;;;;;12.40;7.72;;;9.80;92.30;;;;;;5080186;28;20032;-67
2023/04/07 03:36:40;;;;;;;13.90;8.98;;;9.90;92.30;;;;;;5077494;28;20499;-66
2023/04/07 03:39:05;;;;;;;12.30;8.63;;;9.90;92.30;;;;;;5088252;28;20028;-66
2023/04/07 03:41:31;;;;;;;13.05;9.07;;;9.90;92.20;;;;;;5092100;28;20161;-66
2023/04/07 03:43:56;;;;;;;16.15;10.13;;;9.90;92.20;;;;;;5084160;28;20036;-66
2023/04/07 03:46:23;;;;;;;12.77;8.43;;;9.90;92.10;;;;;;5082718;28;20028;-67
2023/04/07 03:48:48;;;;;;;11.77;7.72;;;10.00;92.10;;;;;;5084277;28;20051;-66
2023/04/07 03:51:14;;;;;;;15.90;9.68;;;10.00;92.00;;;;;;5093311;28;20024;-65
2023/04/07 03:53:40;;;;;;;13.18;8.95;;;10.00;92.00;;;;;;5086964;28;20095;-67
2023/04/07 03:56:06;;;;;;;12.00;7.65;;;10.00;92.00;;;;;;5073300;28;20021;-67
2023/04/07 03:58:31;;;;;;;13.98;8.35;;;10.00;92.00;;;;;;5082575;28;20514;-66
2023/04/07 04:00:57;;;;;;;12.82;8.20;;;10.00;92.00;;;;;;5088087;28;20073;-66
2023/04/07 04:03:22;;;;;;;11.85;7.28;;;10.00;92.00;;;;;;5088641;28;20073;-66
2023/04/07 04:05:48;;;;;;;12.57;7.95;;;10.00;92.00;;;;;;5087721;28;20085;-67
2023/04/07 04:08:13;;;;;;;17.77;9.98;;;10.00;92.00;;;;;;5088543;28;20032;-66
2023/04/07 04:10:39;;;;;;;16.10;10.45;;;10.00;91.90;;;;;;5073974;28;20016;-66
2023/04/07 04:13:06;;;;;;;17.02;10.80;;;10.00;92.00;;;;;;5071616;28;20028;-67
2023/04/07 04:15:32;;;;;;;13.98;9.80;;;9.90;92.00;;;;;;5077388;28;20028;-66
2023/04/07 04:17:58;;;;;;;12.93;9.35;;;9.90;92.10;;;;;;5089856;28;20035;-67
2023/04/07 04:20:24;;;;;;;14.63;9.30;;;9.90;92.20;;;;;;5092168;28;20032;-66
2023/04/07 04:22:49;;;;;;;17.38;9.55;;;9.90;92.20;;;;;;5083374;28;20021;-66
2023/04/07 04:25:16;;;;;;;19.02;11.02;;;9.90;92.10;;;;;;5084750;28;20047;-67
2023/04/07 04:27:41;;;;;;;18.50;10.82;;;9.90;92.10;;;;;;5086713;28;20024;-67
2023/04/07 04:30:07;;;;;;;21.70;11.35;;;10.00;92.10;;;;;;5081629;28;20391;-67
2023/04/07 04:32:33;;;;;;;15.82;9.68;;;10.00;92.00;;;;;;5076953;28;20059;-67
2023/04/07 04:34:59;;;;;;;16.67;10.05;;;10.00;92.10;;;;;;5082758;28;20577;-67
2023/04/07 04:37:24;;;;;;;14.77;8.80;;;10.00;92.00;;;;;;5075263;28;20042;-67
2023/04/07 04:39:50;;;;;;;17.20;10.85;;;10.00;92.00;;;;;;5085047;28;20099;-67
2023/04/07 04:42:16;;;;;;;19.98;11.63;;;10.00;92.00;;;;;;5079671;28;20462;-66
2023/04/07 04:44:41;;;;;;;15.07;9.32;;;10.00;92.00;;;;;;5076851;28;20024;-68
2023/04/07 04:47:07;;;;;;;13.40;8.77;;;10.00;92.00;;;;;;5091061;28;20043;-66
2023/04/07 04:49:33;;;;;;;13.95;8.63;;;10.00;91.90;;;;;;5074078;28;20107;-66
2023/04/07 04:51:58;;;;;;;14.75;8.90;;;10.00;92.00;;;;;;5073100;28;20024;-67
2023/04/07 04:54:24;;;;;;;14.57;8.63;;;10.10;92.00;;;;;;5075439;28;20035;-67
2023/04/07 04:56:50;;;;;;;14.55;9.27;;;10.10;91.90;;;;;;5091176;28;20115;-67
2023/04/07 04:59:15;;;;;;;14.60;9.90;;;10.10;91.90;;;;;;5090814;28;20073;-68
2023/04/07 05:01:41;;;;;;;11.95;7.95;;;10.10;91.80;;;;;;5072145;28;20032;-68
2023/04/07 05:04:08;;;;;;;13.02;8.52;;;10.10;91.70;;;;;;5085197;28;20040;-67
2023/04/07 05:06:33;;;;;;;18.58;10.05;;;10.10;91.80;;;;;;5075214;28;20028;-67
2023/04/07 05:08:59;;;;;;;13.50;9.55;;;10.10;91.70;;;;;;5079066;28;20047;-68
2023/04/07 05:11:24;;;;;;;13.13;8.98;;;10.10;91.70;;;;;;5077010;28;20021;-67
2023/04/07 05:13:50;;;;;;;11.73;8.45;;;10.10;91.80;;;;;;5071789;28;20028;-68
2023/04/07 05:16:15;;;;;;;16.08;10.15;;;10.20;91.80;;;;;;5082953;28;20080;-67
2023/04/07 05:18:41;;;;;;;11.82;8.27;;;10.20;91.70;;;;;;5088753;28;20032;-68
2023/04/07 05:21:06;;;;;;;15.40;10.07;;;10.20;91.70;;;;;;5081445;28;20025;-67
2023/04/07 05:23:32;;;;;;;15.35;8.90;;;10.10;91.60;;;;;;5079586;28;20069;-68
2023/04/07 05:25:58;;;;;;;12.20;7.82;;;10.20;91.60;;;;;;5083211;28;20565;-67
2023/04/07 05:28:24;;;;;;;16.65;9.60;;;10.20;91.60;;;;;;5076589;28;20553;-67
2023/04/07 05:30:50;;;;;;;16.05;10.82;;;10.20;91.60;;;;;;5081091;28;20068;-66
2023/04/07 05:33:15;;;;;;;16.08;9.57;;;10.10;91.50;;;;;;5074522;28;20110;-66
2023/04/07 05:35:43;;;;;;;13.40;8.88;;;10.10;91.60;;;;;;5087536;28;20019;-66
2023/04/07 05:38:09;;;;;;;11.00;7.78;;;10.10;91.60;;;;;;5089170;28;20050;-67
2023/04/07 05:40:35;;;;;;;12.73;7.97;;;10.10;91.60;;;;;;5072556;28;20024;-66
2023/04/07 05:43:00;;;;;;;13.73;9.38;;;10.10;91.60;;;;;;5090995;28;20032;-66
2023/04/07 05:45:26;;;;;;;14.20;8.98;;;10.10;91.60;;;;;;5088629;28;20020;-65
2023/04/07 05:47:51;;;;;;;18.13;9.88;;;10.00;91.60;;;;;;5086508;28;20060;-64
2023/04/07 05:50:17;;;;;;;12.55;8.57;;;10.10;91.60;;;;;;5083665;28;20102;-66
2023/04/07 05:52:43;;;;;;;14.88;8.63;;;10.10;91.60;;;;;;5090817;28;20034;-66
2023/04/07 05:55:08;;;;;;;16.75;9.85;;;10.10;91.60;;;;;;5090320;28;20509;-67
2023/04/07 05:57:35;;;;;;;13.10;8.30;;;10.10;91.50;;;;;;5076276;28;20607;-66
2023/04/07 06:00:01;;;;;;;9.20;7.03;;;10.10;91.50;;;;;;5085480;28;20059;-66
2023/04/07 06:02:26;;;;;;;15.00;8.75;;;10.20;91.50;;;;;;5090984;28;20437;-64
2023/04/07 06:04:52;;;;;;;12.88;8.20;;;10.20;91.40;;;;;;5085221;28;20036;-65
2023/04/07 06:07:17;;;;;;;13.02;8.05;;;10.20;91.40;;;;;;5089278;28;20028;-66
2023/04/07 06:09:43;;;;;;;14.63;8.77;;;10.20;91.40;;;;;;5092823;28;20304;-64
2023/04/07 06:12:11;;;;;;;12.65;8.05;;;10.20;91.40;;;;;;5086789;28;20540;-64
2023/04/07 06:14:36;;;;;;;15.05;8.35;;;10.20;91.30;;;;;;5084112;28;20066;-64
2023/04/07 06:17:02;;;;;;;12.98;7.82;;;10.20;91.30;;;;;;5070192;28;20020;-66
2023/04/07 06:19:27;;;;;;;16.27;9.68;;;10.20;91.30;;;;;;5074191;28;20020;-66
2023/04/07 06:21:53;;;;;;;15.00;9.57;;;10.10;91.40;;;;;;5086074;28;20571;-65
2023/04/07 06:24:21;;;;;;;14.82;8.07;;;10.10;91.50;;;;;;5086872;28;20106;-65
2023/04/07 06:26:48;;;;;;;15.00;7.68;;;10.10;91.50;;;;;;5076643;28;20466;-65
2023/04/07 06:29:14;;;;;;;10.65;7.38;;;10.10;91.50;;;;;;5083156;28;20032;-65
2023/04/07 06:31:40;;;;;;;10.50;6.60;;;10.10;91.60;;;;;;5081162;28;20031;-67
2023/04/07 06:34:05;;;;;;;15.00;7.35;;;10.10;91.50;;;;;;5084667;28;20020;-65
2023/04/07 06:36:32;;;;;;;12.20;7.97;;;10.10;91.80;;;;;;5084217;28;20028;-64
2023/04/07 06:38:58;;;;;;;15.45;8.50;;;10.10;91.70;;;;;;5087553;28;20488;-65
2023/04/07 06:41:24;;;;;;;13.25;8.70;;;10.20;91.50;;;;;;5085131;28;20039;-65
2023/04/07 06:43:52;;;;;;;15.60;8.55;;;10.20;91.50;;;;;;5089433;28;20035;-66
2023/04/07 06:46:18;;;;;;;11.52;8.05;;;10.10;91.50;;;;;;5078408;28;20032;-64
2023/04/07 06:48:45;;;;;;;15.05;8.63;;;10.20;91.60;;;;;;5082354;28;20039;-65
2023/04/07 06:51:10;;;;;;;10.50;7.32;;;10.20;91.60;;;;;;5079287;28;20022;-66
2023/04/07 06:53:36;;;;;;;14.02;8.35;;;10.20;91.60;;;;;;5069654;28;20547;-65
2023/04/07 06:56:11;;;;;;;11.43;6.88;;;10.20;91.50;;;;;;5077687;28;20028;-66
2023/04/07 06:58:36;;;;;;;10.88;6.90;;;10.30;91.50;;;;;;5078920;28;20398;-65
2023/04/07 07:01:03;;;;;;;11.65;6.68;;;10.30;91.50;;;;;;5081198;28;20043;-66
2023/04/07 07:03:28;;;;;;;10.13;6.55;;;10.30;91.60;;;;;;5091741;28;20022;-66
2023/04/07 07:05:57;;;;;;;9.68;6.80;;;10.30;91.50;;;;;;5090385;28;20039;-66
2023/04/07 07:08:27;;;;;;;10.13;5.93;;;10.30;91.50;;;;;;5083139;28;20035;-66
2023/04/07 07:10:53;;;;;;;10.13;5.97;;;10.30;91.80;;;;;;5080571;28;20017;-64
2023/04/07 07:13:22;;;;;;;10.38;6.13;;;10.40;91.60;;;;;;5086404;28;20027;-64
2023/04/07 07:15:48;;;;;;;8.38;5.78;;;10.40;91.60;;;;;;5074927;28;20020;-66
2023/04/07 07:18:14;;;;;;;7.78;5.20;;;10.40;91.60;;;;;;5084431;28;20153;-65
2023/04/07 07:20:39;;;;;;;7.82;5.20;;;10.40;91.60;;;;;;5069517;28;20479;-65
2023/04/07 07:23:05;;;;;;;9.25;5.40;;;10.50;91.60;;;;;;5079820;28;20085;-64
2023/04/07 07:25:30;;;;;;;8.15;4.75;;;10.60;91.50;;;;;;5079114;28;20482;-66
2023/04/07 07:27:56;;;;;;;5.30;3.88;;;10.60;91.50;;;;;;5087281;28;20038;-64
2023/04/07 07:30:22;;;;;;;7.90;4.90;;;10.60;91.40;;;;;;5077262;28;20104;-67
2023/04/07 07:32:49;;;;;;;7.60;4.95;;;10.60;91.40;;;;;;5072809;28;20033;-66
2023/04/07 07:35:15;;;;;;;9.82;4.97;;;10.70;91.40;;;;;;5074223;28;20043;-66
2023/04/07 07:37:40;;;;;;;7.97;4.30;;;10.70;91.30;;;;;;5080253;28;20062;-66
2023/04/07 07:40:06;;;;;;;7.65;4.38;;;10.80;91.20;;;;;;5081119;28;20113;-66
2023/04/07 07:42:32;;;;;;;7.50;4.78;;;10.80;91.20;;;;;;5083242;28;20028;-66
2023/04/07 07:44:58;;;;;;;5.80;4.13;;;10.90;91.20;;;;;;5078443;28;20090;-66
2023/04/07 07:47:25;;;;;;;7.80;4.43;;;11.00;91.10;;;;;;5073528;28;20032;-66
2023/04/07 07:49:50;;;;;;;7.25;5.00;;;11.00;91.00;;;;;;5079813;28;20024;-67
2023/04/07 07:52:16;;;;;;;7.63;4.40;;;11.00;90.90;;;;;;5087359;28;20032;-66
2023/04/07 07:54:42;;;;;;;6.80;3.97;;;11.00;90.80;;;;;;5087473;28;20013;-67
2023/04/07 07:57:08;;;;;;;7.45;3.92;;;10.90;90.80;;;;;;5085654;28;20563;-66
2023/04/07 07:59:33;;;;;;;6.53;3.60;;;10.90;90.90;;;;;;5088271;28;20020;-67
2023/04/07 08:01:59;;;;;;;5.88;3.38;;;11.00;90.80;;;;;;5080552;28;20037;-66
2023/04/07 08:04:25;;;;;;;8.43;4.15;;;11.00;90.80;;;;;;5085339;28;20020;-67
2023/04/07 08:06:52;;;;;;;7.20;3.97;;;11.10;90.80;;;;;;5081660;28;20118;-65
2023/04/07 08:09:19;;;;;;;7.00;4.07;;;11.10;90.70;;;;;;5090102;28;20039;-66
2023/04/07 08:11:44;;;;;;;5.68;3.92;;;11.10;90.70;;;;;;5089737;28;20393;-65
2023/04/07 08:14:10;;;;;;;5.97;3.65;;;11.10;90.60;;;;;;5090927;28;20035;-66
2023/04/07 08:16:36;;;;;;;5.28;3.70;;;11.20;90.60;;;;;;5080879;28;20098;-68
2023/04/07 08:19:01;;;;;;;4.90;3.78;;;11.10;90.50;;;;;;5074662;28;20032;-67
2023/04/07 08:21:27;;;;;;;6.13;3.78;;;11.10;90.50;;;;;;5079941;28;20111;-66
2023/04/07 08:23:54;;;;;;;3.88;3.22;;;11.20;90.50;;;;;;5080275;28;20478;-66
2023/04/07 08:26:20;;;;;;;5.40;3.60;;;11.20;90.50;;;;;;5084562;28;20078;-68
2023/04/07 08:28:46;;;;;;;4.75;3.42;;;11.20;90.50;;;;;;5079367;28;20016;-67
2023/04/07 08:31:11;;;;;;;4.70;3.00;;;11.20;90.50;;;;;;5082794;28;20024;-67
2023/04/07 08:33:37;;;;;;;5.25;3.80;;;11.20;90.50;;;;;;5087191;28;20016;-66
2023/04/07 08:36:03;;;;;;;5.32;4.07;;;11.20;90.50;;;;;;5090376;28;20508;-66
2023/04/07 08:38:30;;;;;;;7.82;4.13;;;11.20;90.60;;;;;;5082410;28;20311;-65
2023/04/07 08:41:05;;;;;;;4.50;3.50;;;11.20;90.50;;;;;;5086708;28;20100;-67
2023/04/07 08:43:34;;;;;;;5.60;3.53;;;11.10;90.50;;;;;;5086772;28;20081;-66
2023/04/07 08:46:01;;;;;;;4.90;4.05;;;11.10;90.50;;;;;;5090420;28;20492;-64
2023/04/07 08:48:32;;;;;;;6.40;4.00;;;11.10;90.60;;;;;;5089379;28;20542;-68
2023/04/07 08:51:04;;;;;;;7.97;4.60;;;11.10;90.70;;;;;;5088940;28;20028;-66
2023/04/07 08:53:49;;;;;;;6.68;4.18;;;11.20;90.60;;;;;;5087030;28;20050;-65
2023/04/07 08:56:20;;;;;;;6.55;4.10;;;11.10;90.60;;;;;;5085746;28;20032;-67
2023/04/07 08:58:47;;;;;;;6.55;4.05;;;11.10;90.70;;;;;;5087139;28;20044;-66
2023/04/07 09:01:14;;;;;;;5.50;4.28;;;11.20;90.70;;;;;;5082032;28;20024;-65
2023/04/07 09:03:41;;;;;;;6.88;4.40;;;11.20;90.70;;;;;;5085377;28;20070;-65
2023/04/07 09:06:10;;;;;;;8.02;4.30;;;11.20;90.70;;;;;;5088437;28;20027;-67
2023/04/07 09:08:35;;;;;;;4.15;3.42;;;11.30;90.70;;;;;;5087319;28;20016;-66
2023/04/07 09:11:01;;;;;;;5.57;3.75;;;11.30;90.50;;;;;;5088276;28;20024;-68
2023/04/07 09:13:27;;;;;;;4.93;3.53;;;11.40;90.50;;;;;;5083236;28;20103;-65
2023/04/07 09:15:53;;;;;;;4.95;3.83;;;11.40;90.40;;;;;;5082584;28;20107;-66
2023/04/07 09:18:18;;;;;;;5.50;3.67;;;11.50;90.30;;;;;;5087105;28;20032;-66
2023/04/07 09:21:01;;;;;;;5.75;3.47;;;11.60;90.30;;;;;;5086221;28;20036;-66
2023/04/07 09:23:31;;;;;;;4.63;2.90;;;11.60;90.20;;;;;;5086371;28;20024;-66
2023/04/07 09:25:59;;;;;;;4.88;3.00;;;11.60;90.10;;;;;;5088284;28;20024;-66
2023/04/07 09:28:25;;;;;;;5.10;2.83;;;11.70;90.10;;;;;;5083837;28;20036;-67
2023/04/07 09:30:54;;;;;;;4.80;2.85;;;11.80;90.10;;;;;;5089249;28;20024;-67
2023/04/07 09:33:29;;;;;;;6.38;3.58;;;11.90;89.80;;;;;;5089042;28;20024;-67
2023/04/07 09:35:55;;;;;;;4.57;2.90;;;11.90;89.60;;;;;;5087305;28;20741;-66
2023/04/07 09:38:21;;;;;;;6.03;3.50;;;11.90;89.60;;;;;;5087206;28;20520;-67
2023/04/07 09:40:48;;;;;;;6.70;3.92;;;11.90;89.60;;;;;;5082489;28;20035;-67
2023/04/07 09:43:18;;;;;;;7.55;3.90;;;11.80;89.60;;;;;;5088042;28;20406;-66
2023/04/07 09:45:43;;;;;;;7.25;4.30;;;11.70;89.80;;;;;;5079167;28;20028;-66
2023/04/07 09:48:19;;;;;;;7.13;3.70;;;11.70;89.80;;;;;;5085534;28;20070;-67
2023/04/07 09:50:48;;;;;;;8.18;4.55;;;11.70;89.90;;;;;;5082690;28;20051;-67
2023/04/07 09:53:14;;;;;;;7.55;4.15;;;11.70;89.80;;;;;;5087017;28;20024;-66
2023/04/07 09:55:41;;;;;;;9.23;4.80;;;11.70;89.70;;;;;;5087255;28;20112;-67
2023/04/07 09:58:07;;;;;;;9.13;4.68;;;11.70;89.80;;;;;;5086243;28;20032;-67
2023/04/07 10:00:34;;;;;;;6.57;3.95;;;11.70;89.80;;;;;;5089220;28;20044;-66
2023/04/07 10:03:00;;;;;;;7.38;4.57;;;11.70;89.50;;;;;;5087102;28;20106;-67
2023/04/07 10:05:26;;;;;;;5.47;3.55;;;11.60;89.20;;;;;;5088760;28;20115;-66
2023/04/07 10:07:53;;;;;;;7.57;4.30;;;11.60;89.30;;;;;;5082274;28;20036;-66
2023/04/07 10:10:19;;;;;;;7.05;3.90;;;11.60;89.20;;;;;;5083718;28;20619;-66
2023/04/07 10:12:46;;;;;;;7.18;4.20;;;11.60;89.20;;;;;;5084237;28;20024;-67
2023/04/07 10:15:14;;;;;;;6.00;3.70;;;11.70;89.30;;;;;;5082722;28;20074;-67
2023/04/07 10:17:44;;;;;;;6.60;4.25;;;11.70;89.30;;;;;;5085835;28;20433;-66
2023/04/07 10:20:10;;;;;;;5.40;3.60;;;11.70;89.10;;;;;;5086005;28;20031;-66
2023/04/07 10:22:37;;;;;;;7.45;3.30;;;11.60;89.10;;;;;;5085007;28;20028;-66
2023/04/07 10:25:08;;;;;;;6.28;3.63;;;11.60;88.90;;;;;;5083489;28;20032;-67
2023/04/07 10:27:40;;;;;;;4.35;2.72;;;11.60;88.80;;;;;;5084860;28;20390;-66
2023/04/07 10:30:13;;;;;;;5.05;2.95;;;11.70;88.70;;;;;;5079228;28;20016;-68
2023/04/07 10:32:52;;;;;;;6.90;3.47;;;11.70;88.60;;;;;;5080860;28;20048;-65
2023/04/07 10:35:18;;;;;;;9.55;3.40;;;11.80;88.40;;;;;;5085225;28;20378;-68
2023/04/07 10:38:09;;;;;;;5.25;3.10;;;11.90;88.20;;;;;;5088052;28;20102;-66
2023/04/07 10:40:36;;;;;;;5.72;3.55;;;11.90;88.00;;;;;;5084968;28;20505;-67
2023/04/07 10:43:02;;;;;;;8.10;3.90;;;11.90;87.80;;;;;;5087229;28;20115;-67
2023/04/07 10:45:53;;;;;;;8.45;3.50;;;11.80;87.70;;;;;;5083734;28;20099;-67
2023/04/07 10:48:19;;;;;;;6.88;3.78;;;11.80;87.90;;;;;;5085936;28;20028;-66
2023/04/07 10:51:06;;;;;;;5.68;3.60;;;11.80;88.10;;;;;;5081899;28;20107;-66
2023/04/07 10:53:33;;;;;;;4.88;3.58;;;11.80;88.30;;;;;;5087221;28;20012;-65
2023/04/07 10:55:59;;;;;;;6.20;3.40;;;11.80;88.40;;;;;;5085978;28;20055;-66
2023/04/07 10:58:27;;;;;;;6.28;3.15;;;11.80;88.50;;;;;;5086886;28;20070;-66
2023/04/07 11:01:02;;;;;;;6.18;3.80;;;11.80;88.50;;;;;;5082947;28;20024;-65
2023/04/07 11:03:29;;;;;;;6.70;3.05;;;11.80;88.60;;;;;;5076242;28;20032;-65
2023/04/07 11:06:14;;;;;;;4.90;3.20;;;11.90;88.70;;;;;;5085384;28;20032;-66
2023/04/07 11:08:45;;;;;;;4.10;3.17;;;11.90;88.70;;;;;;5085693;28;20048;-65
2023/04/07 11:11:12;;;;;;;4.70;3.80;;;11.80;88.80;;;;;;5083462;28;20016;-65
2023/04/07 11:13:42;;;;;;;5.20;3.20;;;11.90;89.00;;;;;;5084182;28;20417;-66
2023/04/07 11:16:08;;;;;;;6.07;3.72;;;12.00;89.10;;;;;;5087158;28;20020;-66
2023/04/07 11:18:35;;;;;;;5.57;3.75;;;11.90;88.90;;;;;;5078000;28;20040;-67
2023/04/07 11:21:02;;;;;;;8.35;3.97;;;11.90;88.80;;;;;;5087802;28;20047;-65
2023/04/07 11:23:28;;;;;;;6.32;4.15;;;11.90;88.90;;;;;;5086991;28;20530;-67
2023/04/07 11:26:03;;;;;;;5.50;3.90;;;11.90;88.90;;;;;;5085592;28;20039;-67
2023/04/07 11:28:29;;;;;;;5.43;3.63;;;11.90;89.00;;;;;;5090518;28;20043;-66
2023/04/07 11:30:57;;;;;;;8.32;4.03;;;11.90;89.10;;;;;;5091193;28;20542;-64
2023/04/07 11:33:31;;;;;;;6.22;3.97;;;11.70;89.10;;;;;;5091836;28;20074;-67
2023/04/07 11:36:01;;;;;;;7.22;4.30;;;11.70;89.40;;;;;;5084801;28;20474;-66
2023/04/07 11:38:29;;;;;;;7.57;3.75;;;11.70;89.40;;;;;;5090802;28;20035;-66
2023/04/07 11:40:55;;;;;;;7.30;4.18;;;11.70;89.70;;;;;;5090645;28;20055;-66
2023/04/07 11:43:23;;;;;;;7.93;4.88;;;11.70;89.60;;;;;;5088375;28;20486;-66
2023/04/07 11:46:07;;;;;;;7.43;4.30;;;11.70;89.50;;;;;;5089329;28;20031;-66
2023/04/07 11:48:33;;;;;;;7.85;4.20;;;11.60;89.70;;;;;;5089908;28;20107;-65
2023/04/07 11:51:00;;;;;;;4.60;3.55;;;11.50;89.70;;;;;;5087801;28;20084;-66
2023/04/07 11:53:27;;;;;;;6.70;3.75;;;11.60;89.80;;;;;;5083538;28;20062;-65
2023/04/07 11:56:02;;;;;;;7.10;4.15;;;11.60;89.90;;;;;;5088332;28;20475;-67
2023/04/07 11:58:28;;;;;;;6.70;4.30;;;11.70;89.90;;;;;;5086212;28;20532;-66
2023/04/07 12:00:56;;;;;;;6.45;4.72;;;11.70;89.80;;;;;;5090362;28;20024;-66
2023/04/07 12:03:22;;;;;;;5.95;4.25;;;11.70;89.80;;;;;;5090200;28;20430;-67
2023/04/07 12:05:47;;;;;;;5.63;4.00;;;11.70;89.60;;;;;;5088521;28;20028;-67
2023/04/07 12:08:15;;;;;;;7.70;4.57;;;11.80;89.80;;;;;;5090262;28;20031;-66
2023/04/07 12:10:41;;;;;;;7.65;5.57;;;11.80;89.60;;;;;;5089639;28;20016;-67
2023/04/07 12:13:08;;;;;;;10.55;5.13;;;11.80;89.40;;;;;;5090042;28;20073;-67
2023/04/07 12:15:35;;;;;;;8.02;5.15;;;11.70;89.70;;;;;;5082414;28;20016;-67
2023/04/07 12:18:02;;;;;;;8.07;5.03;;;11.70;89.80;;;;;;5081554;28;20036;-67
2023/04/07 12:20:27;;;;;;;7.95;5.15;;;11.70;89.80;;;;;;5085762;28;20498;-66
2023/04/07 12:22:53;;;;;;;6.57;4.65;;;11.80;89.80;;;;;;5086728;28;20216;-68
2023/04/07 12:25:19;;;;;;;6.65;4.00;;;11.80;89.70;;;;;;5085155;28;20024;-66
2023/04/07 12:27:44;;;;;;;7.10;4.68;;;11.90;89.80;;;;;;5089894;28;20120;-66
2023/04/07 12:30:11;;;;;;;8.35;4.60;;;11.90;89.60;;;;;;5089952;28;20084;-67
2023/04/07 12:32:37;;;;;;;7.40;4.45;;;11.80;89.50;;;;;;5090069;28;20028;-66
2023/04/07 12:35:02;;;;;;;8.65;4.05;;;11.80;89.50;;;;;;5089857;28;20020;-65
2023/04/07 12:37:28;;;;;;;7.10;4.55;;;11.90;89.50;;;;;;5089348;28;20030;-66
2023/04/07 12:39:54;;;;;;;6.50;4.18;;;11.90;89.30;;;;;;5089651;28;20198;-67